Time;durP1;ratioP1;P1;durP2;ratioP2;P2;SDS_P1;SDS_P2;PMS_P1;PMS_P2;Temp;Humidity;BMP_temperature;BMP_pressure;BME280_temperature;BME280_humidity;BME280_pressure;Samples;Min_cycle;Max_cycle;Signal;HPM_P1;HPM_P2
2022/02/19 00:02:05;;;;;;;;;;;6.10;99.90;;;;;;8420247;28;19924;-75
2022/02/19 00:06:07;;;;;;;;;;;6.10;99.90;;;;;;8423390;28;19955;-74
2022/02/19 00:10:08;;;;;;;;;;;6.10;99.90;;;;;;8412050;28;19924;-74
2022/02/19 00:14:10;;;;;;;;;;;6.10;99.90;;;;;;8394731;28;19946;-74
2022/02/19 00:18:11;;;;;;;;;;;6.10;99.90;;;;;;8418771;28;20430;-74
2022/02/19 00:22:14;;;;;;;;;;;6.00;99.90;;;;;;8394636;28;19939;-75
2022/02/19 00:26:15;;;;;;;;;;;6.00;99.90;;;;;;8412630;28;19924;-73
2022/02/19 00:30:17;;;;;;;;;;;6.00;99.90;;;;;;8418927;28;19931;-74
2022/02/19 00:34:19;;;;;;;;;;;6.00;99.90;;;;;;8417336;28;19924;-74
2022/02/19 00:38:20;;;;;;;;;;;6.00;99.90;;;;;;8413095;28;19931;-74
2022/02/19 00:42:22;;;;;;;;;;;6.00;99.90;;;;;;8407396;28;20002;-74
2022/02/19 00:46:24;;;;;;;;;;;6.00;99.90;;;;;;8389979;28;19924;-74
2022/02/19 00:50:26;;;;;;;;;;;6.00;99.90;;;;;;8415328;28;20415;-74
2022/02/19 00:54:28;;;;;;;;;;;6.00;99.90;;;;;;8415183;28;20023;-74
2022/02/19 00:58:29;;;;;;;;;;;6.00;99.90;;;;;;8411979;28;19924;-74
2022/02/19 01:02:31;;;;;;;;;;;6.00;99.90;;;;;;8393377;28;20022;-74
2022/02/19 01:06:33;;;;;;;;;;;6.00;99.90;;;;;;8416775;28;19924;-74
2022/02/19 01:10:37;;;;;;;;;;;6.00;99.90;;;;;;8395606;28;19968;-74
2022/02/19 01:14:39;;;;;;;;;;;6.00;99.90;;;;;;8398481;28;19936;-74
2022/02/19 01:18:40;;;;;;;;;;;6.00;99.90;;;;;;8411337;28;20039;-74
2022/02/19 01:22:42;;;;;;;;;;;6.00;99.90;;;;;;8397021;28;19943;-74
2022/02/19 01:26:44;;;;;;;;;;;6.00;99.90;;;;;;8415913;28;19924;-74
2022/02/19 01:30:45;;;;;;;;;;;6.00;99.90;;;;;;8413643;28;19931;-75
2022/02/19 01:34:47;;;;;;;;;;;6.00;99.90;;;;;;8409691;28;20263;-74
2022/02/19 01:38:49;;;;;;;;;;;5.90;99.90;;;;;;8404702;28;19931;-74
2022/02/19 01:42:51;;;;;;;;;;;5.90;99.90;;;;;;8392489;28;19932;-74
2022/02/19 01:46:52;;;;;;;;;;;5.90;99.90;;;;;;8412684;28;19933;-73
2022/02/19 01:50:54;;;;;;;;;;;5.90;99.90;;;;;;8395905;28;19943;-74
2022/02/19 01:54:56;;;;;;;;;;;5.90;99.90;;;;;;8415928;28;19924;-74
2022/02/19 01:58:58;;;;;;;;;;;5.90;99.90;;;;;;8411864;28;20268;-74
2022/02/19 02:03:00;;;;;;;;;;;5.90;99.90;;;;;;8418038;28;19924;-74
2022/02/19 02:07:02;;;;;;;;;;;5.90;99.90;;;;;;8407877;28;20277;-74
2022/02/19 02:11:04;;;;;;;;;;;5.90;99.90;;;;;;8405073;28;19929;-74
2022/02/19 02:15:21;;;;;;;;;;;5.90;99.90;;;;;;8411362;28;20323;-74
2022/02/19 02:19:23;;;;;;;;;;;5.90;99.90;;;;;;8392143;28;20583;-74
2022/02/19 02:23:25;;;;;;;;;;;5.90;99.90;;;;;;8411819;28;20426;-74
2022/02/19 02:27:26;;;;;;;;;;;6.00;99.90;;;;;;8391418;28;20371;-74
2022/02/19 02:31:28;;;;;;;;;;;6.00;99.90;;;;;;8412651;28;19931;-73
2022/02/19 02:35:29;;;;;;;;;;;6.00;99.90;;;;;;8400991;28;19992;-74
2022/02/19 02:39:31;;;;;;;;;;;6.00;99.90;;;;;;8385907;28;19967;-74
2022/02/19 02:43:33;;;;;;;;;;;6.00;99.90;;;;;;8408947;28;20026;-74
2022/02/19 02:47:36;;;;;;;;;;;6.00;99.90;;;;;;8402384;28;20461;-74
2022/02/19 02:51:37;;;;;;;;;;;5.90;99.90;;;;;;8405665;28;19959;-74
2022/02/19 02:55:39;;;;;;;;;;;5.90;99.90;;;;;;8405640;28;19925;-74
2022/02/19 02:59:41;;;;;;;;;;;5.80;99.90;;;;;;8414252;28;19924;-74
2022/02/19 03:03:43;;;;;;;;;;;5.80;99.90;;;;;;8405517;28;19924;-74
2022/02/19 03:07:45;;;;;;;;;;;5.80;99.90;;;;;;8408209;28;19925;-73
2022/02/19 03:11:47;;;;;;;;;;;5.90;99.90;;;;;;8411301;28;19924;-74
2022/02/19 03:15:48;;;;;;;;;;;5.90;99.90;;;;;;8414239;28;19932;-74
2022/02/19 03:19:50;;;;;;;;;;;5.80;99.90;;;;;;8412248;28;19928;-74
2022/02/19 03:23:52;;;;;;;;;;;5.80;99.90;;;;;;8398115;28;19924;-73
2022/02/19 03:27:54;;;;;;;;;;;5.80;99.90;;;;;;8413111;28;19936;-73
2022/02/19 03:31:56;;;;;;;;;;;5.80;99.90;;;;;;8415263;28;20303;-74
2022/02/19 03:35:57;;;;;;;;;;;5.80;99.90;;;;;;8406262;28;19924;-74
2022/02/19 03:39:59;;;;;;;;;;;5.80;99.90;;;;;;8392007;28;19924;-74
2022/02/19 03:44:01;;;;;;;;;;;5.80;99.90;;;;;;8388391;28;19931;-74
2022/02/19 03:48:03;;;;;;;;;;;5.80;99.90;;;;;;8408683;28;20391;-74
2022/02/19 03:52:04;;;;;;;;;;;5.90;99.90;;;;;;8410588;28;19928;-74
2022/02/19 03:56:06;;;;;;;;;;;5.90;99.90;;;;;;8415589;28;19924;-74
2022/02/19 04:00:11;;;;;;;;;;;5.80;99.90;;;;;;8408942;28;20387;-74
2022/02/19 04:04:13;;;;;;;;;;;5.90;99.90;;;;;;8411450;28;19928;-74
2022/02/19 04:08:15;;;;;;;;;;;5.90;99.90;;;;;;8420437;28;19924;-74
2022/02/19 04:12:16;;;;;;;;;;;5.80;99.90;;;;;;8407818;28;20368;-74
2022/02/19 04:16:18;;;;;;;;;;;5.80;99.90;;;;;;8413010;28;19932;-73
2022/02/19 04:20:20;;;;;;;;;;;5.80;99.90;;;;;;8411739;28;19924;-74
2022/02/19 04:24:21;;;;;;;;;;;5.80;99.90;;;;;;8420752;28;20359;-74
2022/02/19 04:28:24;;;;;;;;;;;5.80;99.90;;;;;;8412340;28;19942;-74
2022/02/19 04:32:25;;;;;;;;;;;5.80;99.90;;;;;;8414300;28;19944;-74
2022/02/19 04:36:27;;;;;;;;;;;5.80;99.90;;;;;;8420452;28;19932;-74
2022/02/19 04:40:29;;;;;;;;;;;5.80;99.90;;;;;;8388857;28;19932;-74
2022/02/19 04:44:30;;;;;;;;;;;5.80;99.90;;;;;;8413307;28;19944;-74
2022/02/19 04:48:32;;;;;;;;;;;5.80;99.90;;;;;;8412768;28;19931;-74
2022/02/19 04:52:34;;;;;;;;;;;5.80;99.90;;;;;;8398422;28;19935;-74
2022/02/19 04:56:35;;;;;;;;;;;5.80;99.90;;;;;;8417377;28;19928;-74
2022/02/19 05:00:37;;;;;;;;;;;5.80;99.90;;;;;;8417246;28;20389;-74
2022/02/19 05:04:39;;;;;;;;;;;5.80;99.90;;;;;;8415454;28;20287;-74
2022/02/19 05:08:41;;;;;;;;;;;5.70;99.90;;;;;;8418727;28;19932;-74
2022/02/19 05:12:43;;;;;;;;;;;5.70;99.90;;;;;;8413447;28;19924;-74
2022/02/19 05:16:44;;;;;;;;;;;5.70;99.90;;;;;;8412552;28;19931;-74
2022/02/19 05:20:46;;;;;;;;;;;5.70;99.90;;;;;;8407818;28;19924;-74
2022/02/19 05:24:47;;;;;;;;;;;5.70;99.90;;;;;;8390708;28;19963;-73
2022/02/19 05:28:50;;;;;;;;;;;5.70;99.90;;;;;;8401428;28;20053;-74
2022/02/19 05:32:51;;;;;;;;;;;5.70;99.90;;;;;;8410287;28;19935;-74
2022/02/19 05:36:53;;;;;;;;;;;5.70;99.90;;;;;;8391239;28;19928;-74
2022/02/19 05:40:55;;;;;;;;;;;5.80;99.90;;;;;;8412227;28;19939;-73
2022/02/19 05:44:57;;;;;;;;;;;5.80;99.90;;;;;;8409072;28;19931;-74
2022/02/19 05:48:59;;;;;;;;;;;5.70;99.90;;;;;;8392134;28;19931;-74
2022/02/19 05:53:04;;;;;;;;;;;5.70;99.90;;;;;;8409278;28;20205;-74
2022/02/19 05:57:06;;;;;;;;;;;5.70;99.90;;;;;;8387062;28;19928;-74
2022/02/19 06:01:07;;;;;;;;;;;5.70;99.90;;;;;;8411061;28;19924;-75
2022/02/19 06:05:09;;;;;;;;;;;5.70;99.90;;;;;;8405037;28;20538;-73
2022/02/19 06:09:10;;;;;;;;;;;5.70;99.90;;;;;;8410172;28;19966;-73
2022/02/19 06:13:13;;;;;;;;;;;5.70;99.90;;;;;;8394092;28;19925;-74
2022/02/19 06:17:14;;;;;;;;;;;5.70;99.90;;;;;;8388615;28;19947;-74
2022/02/19 06:21:16;;;;;;;;;;;5.70;99.90;;;;;;8413043;28;20302;-74
2022/02/19 06:25:18;;;;;;;;;;;5.70;99.90;;;;;;8398463;28;19931;-74
2022/02/19 06:29:19;;;;;;;;;;;5.70;99.90;;;;;;8408968;28;19925;-74
2022/02/19 06:33:21;;;;;;;;;;;5.60;99.90;;;;;;8400096;28;20359;-74
2022/02/19 06:37:23;;;;;;;;;;;5.60;99.90;;;;;;8410884;28;20272;-74
2022/02/19 06:41:24;;;;;;;;;;;5.60;99.90;;;;;;8407665;28;19924;-74
2022/02/19 06:45:26;;;;;;;;;;;5.60;99.90;;;;;;8390067;28;19932;-74
2022/02/19 06:49:28;;;;;;;;;;;5.60;99.90;;;;;;8393381;28;19947;-74
2022/02/19 06:53:29;;;;;;;;;;;5.60;99.90;;;;;;8383611;28;20357;-73
2022/02/19 06:57:31;;;;;;;;;;;5.50;99.90;;;;;;8400780;28;19939;-74
2022/02/19 07:01:33;;;;;;;;;;;5.50;99.90;;;;;;8411240;28;20198;-74
2022/02/19 07:05:35;;;;;;;;;;;5.50;99.90;;;;;;8401000;28;19932;-74
2022/02/19 07:09:36;;;;;;;;;;;5.50;99.90;;;;;;8390929;28;19986;-74
2022/02/19 07:13:39;;;;;;;;;;;5.50;99.90;;;;;;8388440;28;19931;-75
2022/02/19 07:17:47;;;;;;;;;;;5.40;99.90;;;;;;8411715;28;20298;-73
2022/02/19 07:21:49;;;;;;;;;;;5.50;99.90;;;;;;8387035;28;20380;-74
2022/02/19 07:25:51;;;;;;;;;;;5.50;99.90;;;;;;8400557;28;20004;-74
2022/02/19 07:29:53;;;;;;;;;;;5.50;99.90;;;;;;8375903;28;19925;-74
2022/02/19 07:33:55;;;;;;;;;;;5.50;99.90;;;;;;8408312;28;19983;-74
2022/02/19 07:37:58;;;;;;;;;;;5.50;99.90;;;;;;8401360;28;19932;-74
2022/02/19 07:42:00;;;;;;;;;;;5.60;99.90;;;;;;8404418;28;19931;-74
2022/02/19 07:46:02;;;;;;;;;;;5.60;99.90;;;;;;8414508;28;19924;-74
2022/02/19 07:58:48;;;;;;;;;;;5.70;99.90;;;;;;8410387;28;19936;-74
2022/02/19 08:02:49;;;;;;;;;;;5.70;99.90;;;;;;8408244;28;19931;-74
2022/02/19 08:06:51;;;;;;;;;;;5.80;99.90;;;;;;8409550;28;20263;-74
2022/02/19 08:10:53;;;;;;;;;;;5.80;99.90;;;;;;8400748;28;20290;-74
2022/02/19 08:14:55;;;;;;;;;;;5.90;99.90;;;;;;8399259;28;19940;-74
2022/02/19 08:18:57;;;;;;;;;;;5.90;99.90;;;;;;8410828;28;20363;-74
2022/02/19 08:22:59;;;;;;;;;;;5.90;99.90;;;;;;8409962;28;19939;-74
2022/02/19 08:27:01;;;;;;;;;;;5.90;99.90;;;;;;8396950;28;20331;-73
2022/02/19 08:31:03;;;;;;;;;;;6.00;99.90;;;;;;8408651;28;19924;-74
2022/02/19 08:35:04;;;;;;;;;;;6.00;99.90;;;;;;8406301;28;20391;-73
2022/02/19 08:39:06;;;;;;;;;;;6.10;99.90;;;;;;8388001;28;19925;-74
2022/02/19 08:43:08;;;;;;;;;;;6.10;99.90;;;;;;8402351;28;20276;-73
2022/02/19 08:47:10;;;;;;;;;;;6.20;99.90;;;;;;8406381;28;19924;-73
2022/02/19 08:51:11;;;;;;;;;;;6.20;99.90;;;;;;8410891;28;20376;-73
2022/02/19 08:55:14;;;;;;;;;;;6.20;99.90;;;;;;8388036;28;19924;-73
2022/02/19 08:59:16;;;;;;;;;;;6.20;99.90;;;;;;8385920;28;20283;-73
2022/02/19 09:03:18;;;;;;;;;;;6.30;99.90;;;;;;8414494;28;19932;-73
2022/02/19 09:07:19;;;;;;;;;;;6.30;99.90;;;;;;8413589;28;19943;-73
2022/02/19 09:11:21;;;;;;;;;;;6.40;99.90;;;;;;8404346;28;20331;-73
2022/02/19 09:15:24;;;;;;;;;;;6.50;99.90;;;;;;8383568;28;19935;-73
2022/02/19 09:19:28;;;;;;;;;;;6.70;99.90;;;;;;8379848;28;19924;-73
2022/02/19 09:23:29;;;;;;;;;;;6.90;99.90;;;;;;8385021;28;20233;-73
2022/02/19 09:27:38;;;;;;;;;;;7.00;99.90;;;;;;8407325;28;19924;-73
2022/02/19 09:31:41;;;;;;;;;;;7.30;99.90;;;;;;8411498;28;19932;-73
2022/02/19 09:35:43;;;;;;;;;;;7.40;99.90;;;;;;8408098;28;19924;-75
2022/02/19 09:39:44;;;;;;;;;;;7.40;99.90;;;;;;8407129;28;19935;-73
2022/02/19 09:43:46;;;;;;;;;;;7.30;99.90;;;;;;8395147;28;19991;-73
2022/02/19 09:47:49;;;;;;;;;;;7.20;99.90;;;;;;8393115;28;19932;-74
2022/02/19 09:51:50;;;;;;;;;;;7.30;99.90;;;;;;8390613;28;19924;-73
2022/02/19 09:55:52;;;;;;;;;;;7.70;99.90;;;;;;8397707;28;19978;-73
2022/02/19 09:59:54;;;;;;;;;;;8.10;99.90;;;;;;8392923;28;19924;-73
2022/02/19 10:04:01;;;;;;;;;;;8.20;99.90;;;;;;8395075;28;19989;-73
2022/02/19 10:08:06;;;;;;;;;;;8.10;99.90;;;;;;8415106;28;20368;-73
2022/02/19 10:12:13;;;;;;;;;;;7.90;99.90;;;;;;8407523;28;19978;-73
2022/02/19 10:16:14;;;;;;;;;;;8.10;99.90;;;;;;8389939;28;20303;-73
2022/02/19 10:20:17;;;;;;;;;;;8.40;99.90;;;;;;8408347;28;20431;-73
2022/02/19 10:24:19;;;;;;;;;;;8.80;99.90;;;;;;8399667;28;19931;-73
2022/02/19 10:28:21;;;;;;;;;;;9.00;99.90;;;;;;8378189;28;20307;-73
2022/02/19 10:32:23;;;;;;;;;;;9.20;99.90;;;;;;8401625;28;19932;-73
2022/02/19 10:36:25;;;;;;;;;;;9.40;99.90;;;;;;8408004;28;19924;-73
2022/02/19 10:40:29;;;;;;;;;;;9.70;99.90;;;;;;8399099;28;20496;-73
2022/02/19 10:44:32;;;;;;;;;;;9.80;99.90;;;;;;8401230;28;20340;-73
2022/02/19 10:48:35;;;;;;;;;;;9.70;99.90;;;;;;8386571;28;19932;-73
2022/02/19 10:52:42;;;;;;;;;;;9.10;99.90;;;;;;8398206;28;19936;-73
2022/02/19 10:56:43;;;;;;;;;;;8.60;99.90;;;;;;8403833;28;19928;-73
2022/02/19 11:00:45;;;;;;;;;;;8.60;99.90;;;;;;8400863;28;19935;-73
2022/02/19 11:04:47;;;;;;;;;;;9.00;99.90;;;;;;8384425;28;20338;-73
2022/02/19 11:08:49;;;;;;;;;;;9.10;99.90;;;;;;8410068;28;19924;-73
2022/02/19 11:12:51;;;;;;;;;;;8.90;99.90;;;;;;8374441;28;20007;-73
2022/02/19 11:16:53;;;;;;;;;;;8.70;99.90;;;;;;8399593;28;19924;-73
2022/02/19 11:20:55;;;;;;;;;;;8.90;99.90;;;;;;8390104;28;19943;-73
2022/02/19 11:24:58;;;;;;;;;;;9.10;99.90;;;;;;8383230;28;19944;-73
2022/02/19 11:29:02;;;;;;;;;;;8.70;99.90;;;;;;8386361;28;19943;-73
2022/02/19 11:33:03;;;;;;;;;;;8.30;99.90;;;;;;8406039;28;19931;-73
2022/02/19 11:37:12;;;;;;;;;;;8.30;99.90;;;;;;8399083;28;19942;-73
2022/02/19 11:41:16;;;;;;;;;;;8.30;99.90;;;;;;8413328;28;19924;-73
2022/02/19 11:45:23;;;;;;;;;;;8.90;99.90;;;;;;8393785;28;19931;-73
2022/02/19 11:49:26;;;;;;;;;;;9.20;99.90;;;;;;8404381;28;19943;-73
2022/02/19 11:53:28;;;;;;;;;;;9.00;99.90;;;;;;8407414;28;19924;-73
2022/02/19 11:57:31;;;;;;;;;;;8.60;99.90;;;;;;8403129;28;19929;-73
2022/02/19 12:01:33;;;;;;;;;;;8.40;99.90;;;;;;8406154;28;19928;-73
2022/02/19 12:05:34;;;;;;;;;;;8.30;99.90;;;;;;8410979;28;19932;-73
2022/02/19 12:09:55;;;;;;;;;;;8.40;99.90;;;;;;8385261;28;20268;-73
2022/02/19 12:13:58;;;;;;;;;;;9.00;99.90;;;;;;8406371;28;19939;-75
2022/02/19 12:17:59;;;;;;;;;;;9.80;99.90;;;;;;8381923;28;19988;-73
2022/02/19 12:22:22;;;;;;;;;;;9.80;99.90;;;;;;8407908;28;19931;-74
2022/02/19 12:26:23;;;;;;;;;;;9.70;99.90;;;;;;8404114;28;19925;-73
2022/02/19 12:30:26;;;;;;;;;;;9.40;99.90;;;;;;8412945;28;19928;-73
2022/02/19 12:34:29;;;;;;;;;;;9.30;99.90;;;;;;8415010;28;19977;-73
2022/02/19 12:38:31;;;;;;;;;;;9.40;99.90;;;;;;8383564;28;19924;-73
2022/02/19 12:42:33;;;;;;;;;;;9.30;99.90;;;;;;8413327;28;19928;-73
2022/02/19 12:46:37;;;;;;;;;;;9.40;99.90;;;;;;8412611;28;20660;-73
2022/02/19 12:50:38;;;;;;;;;;;9.60;99.90;;;;;;8411665;28;19924;-73
2022/02/19 12:54:43;;;;;;;;;;;9.40;99.90;;;;;;8413016;28;19924;-73
2022/02/19 12:58:48;;;;;;;;;;;9.30;99.90;;;;;;8409055;28;19931;-73
2022/02/19 13:02:57;;;;;;;;;;;9.00;99.90;;;;;;8410847;28;19925;-73
2022/02/19 13:06:59;;;;;;;;;;;9.00;99.90;;;;;;8399512;28;19931;-73
2022/02/19 13:11:02;;;;;;;;;;;9.00;99.90;;;;;;8407072;28;20358;-73
2022/02/19 13:15:08;;;;;;;;;;;8.90;99.90;;;;;;8408370;28;20330;-73
2022/02/19 13:19:10;;;;;;;;;;;8.90;99.90;;;;;;8406368;28;20390;-73
2022/02/19 13:23:11;;;;;;;;;;;8.90;99.90;;;;;;8406510;28;19924;-73
2022/02/19 13:27:21;;;;;;;;;;;8.90;99.90;;;;;;8402384;28;20015;-73
2022/02/19 13:31:23;;;;;;;;;;;8.70;99.90;;;;;;8389806;28;19924;-73
2022/02/19 13:35:26;;;;;;;;;;;8.70;99.90;;;;;;8397013;28;20483;-72
2022/02/19 13:39:41;;;;;;;;;;;8.60;99.90;;;;;;8381597;28;20396;-73
2022/02/19 13:43:42;;;;;;;;;;;8.60;99.90;;;;;;8404589;28;19924;-73
2022/02/19 13:47:44;;;;;;;;;;;8.60;99.90;;;;;;8390253;28;19935;-73
2022/02/19 13:51:46;;;;;;;;;;;8.50;99.90;;;;;;8414019;28;19944;-73
2022/02/19 13:55:49;;;;;;;;;;;8.40;99.90;;;;;;8393709;28;19932;-73
2022/02/19 14:00:08;;;;;;;;;;;8.30;99.90;;;;;;8392623;28;19935;-73
2022/02/19 14:04:10;;;;;;;;;;;8.20;99.90;;;;;;8410929;28;19928;-73
2022/02/19 14:08:13;;;;;;;;;;;8.20;99.90;;;;;;8411129;28;20283;-73
2022/02/19 14:12:15;;;;;;;;;;;8.20;99.90;;;;;;8407780;28;19935;-73
2022/02/19 14:16:17;;;;;;;;;;;8.20;99.90;;;;;;8384389;28;19924;-72
2022/02/19 14:20:20;;;;;;;;;;;8.20;99.90;;;;;;8403937;28;19938;-73
2022/02/19 14:24:21;;;;;;;;;;;8.20;99.90;;;;;;8400853;28;19925;-73
2022/02/19 14:28:25;;;;;;;;;;;8.10;99.90;;;;;;8405470;28;19924;-73
2022/02/19 14:32:27;;;;;;;;;;;8.10;99.90;;;;;;8384977;28;19924;-73
2022/02/19 14:36:29;;;;;;;;;;;8.10;99.90;;;;;;8403136;28;19925;-73
2022/02/19 14:40:38;;;;;;;;;;;8.10;99.90;;;;;;8382854;28;20025;-73
2022/02/19 14:44:39;;;;;;;;;;;8.00;99.90;;;;;;8399728;28;19939;-73
2022/02/19 14:48:41;;;;;;;;;;;8.00;99.90;;;;;;8405071;28;19924;-73
2022/02/19 14:52:43;;;;;;;;;;;8.00;99.90;;;;;;8403400;28;19931;-73
2022/02/19 14:56:44;;;;;;;;;;;8.00;99.90;;;;;;8404387;28;20394;-73
2022/02/19 15:00:46;;;;;;;;;;;8.00;99.90;;;;;;8404244;28;20367;-73
2022/02/19 15:04:48;;;;;;;;;;;7.90;99.90;;;;;;8389739;28;19928;-73
2022/02/19 15:09:09;;;;;;;;;;;7.70;99.90;;;;;;8399034;28;19971;-73
2022/02/19 15:13:11;;;;;;;;;;;7.50;99.90;;;;;;8408463;28;19931;-73
2022/02/19 15:17:13;;;;;;;;;;;7.50;99.90;;;;;;8382214;28;19924;-73
2022/02/19 15:21:15;;;;;;;;;;;7.50;99.90;;;;;;8401883;28;20372;-73
2022/02/19 15:25:16;;;;;;;;;;;7.40;99.90;;;;;;8400546;28;20410;-72
2022/02/19 15:29:19;;;;;;;;;;;7.50;99.90;;;;;;8391345;28;19932;-72
2022/02/19 15:33:20;;;;;;;;;;;7.50;99.90;;;;;;8378868;28;20330;-72
2022/02/19 15:37:22;;;;;;;;;;;7.50;99.90;;;;;;8406790;28;19939;-72
2022/02/19 15:41:24;;;;;;;;;;;7.40;99.90;;;;;;8387508;28;19935;-72
2022/02/19 15:45:26;;;;;;;;;;;7.40;99.90;;;;;;8388698;28;20344;-72
2022/02/19 15:49:28;;;;;;;;;;;7.40;99.90;;;;;;8395653;28;20003;-72
2022/02/19 15:53:30;;;;;;;;;;;7.40;99.90;;;;;;8403810;28;20003;-72
2022/02/19 15:57:31;;;;;;;;;;;7.40;99.90;;;;;;8404008;28;19932;-69
2022/02/19 16:01:33;;;;;;;;;;;7.40;99.90;;;;;;8410517;28;19935;-69
2022/02/19 16:05:35;;;;;;;;;;;7.30;99.90;;;;;;8414959;28;19924;-69
2022/02/19 16:09:37;;;;;;;;;;;7.20;99.90;;;;;;8394057;28;19928;-69
2022/02/19 16:13:38;;;;;;;;;;;7.20;99.90;;;;;;8392098;28;20023;-69
2022/02/19 16:17:40;;;;;;;;;;;7.10;99.90;;;;;;8393939;28;19946;-69
2022/02/19 16:21:42;;;;;;;;;;;7.10;99.90;;;;;;8417425;28;19932;-69
2022/02/19 16:25:43;;;;;;;;;;;7.10;99.90;;;;;;8415245;28;19928;-69
2022/02/19 16:29:45;;;;;;;;;;;7.00;99.90;;;;;;8416542;28;19928;-69
2022/02/19 16:33:47;;;;;;;;;;;7.00;99.90;;;;;;8417938;28;19932;-69
2022/02/19 16:37:50;;;;;;;;;;;7.00;99.90;;;;;;8416705;28;19935;-69
2022/02/19 16:41:52;;;;;;;;;;;6.90;99.90;;;;;;8391424;28;19964;-69
2022/02/19 16:45:58;;;;;;;;;;;6.80;99.90;;;;;;8390132;28;19954;-69
2022/02/19 16:50:02;;;;;;;;;;;6.70;99.90;;;;;;8409542;28;19932;-69
2022/02/19 16:54:04;;;;;;;;;;;6.50;99.90;;;;;;8391697;28;19928;-69
2022/02/19 16:58:10;;;;;;;;;;;6.40;99.90;;;;;;8399136;28;19932;-69
2022/02/19 17:02:12;;;;;;;;;;;6.30;99.90;;;;;;8403134;28;19985;-69
2022/02/19 17:06:14;;;;;;;;;;;6.20;99.90;;;;;;8406843;28;19968;-69
2022/02/19 17:10:16;;;;;;;;;;;6.10;99.90;;;;;;8406649;28;19932;-69
2022/02/19 17:14:17;;;;;;;;;;;6.00;99.90;;;;;;8389941;28;19932;-69
2022/02/19 17:18:19;;;;;;;;;;;5.90;99.90;;;;;;8409069;28;19924;-69
2022/02/19 17:22:21;;;;;;;;;;;5.80;99.90;;;;;;8407316;28;19931;-69
2022/02/19 17:26:24;;;;;;;;;;;5.70;99.90;;;;;;8390891;28;19928;-69
2022/02/19 17:30:26;;;;;;;;;;;5.60;99.90;;;;;;8415935;28;20336;-69
2022/02/19 17:34:28;;;;;;;;;;;5.50;99.90;;;;;;8389955;28;19928;-69
2022/02/19 17:38:31;;;;;;;;;;;5.40;99.90;;;;;;8408744;28;20298;-69
2022/02/19 17:42:33;;;;;;;;;;;5.30;99.90;;;;;;8384816;28;19943;-69
2022/02/19 17:46:35;;;;;;;;;;;5.20;99.90;;;;;;8400905;28;19932;-69
2022/02/19 17:50:37;;;;;;;;;;;5.20;99.90;;;;;;8406681;28;19939;-69
2022/02/19 17:54:39;;;;;;;;;;;5.10;99.90;;;;;;8389481;28;19924;-70
2022/02/19 17:58:40;;;;;;;;;;;5.00;99.90;;;;;;8403178;28;20306;-70
2022/02/19 18:02:42;;;;;;;;;;;5.00;99.90;;;;;;8405231;28;19933;-70
2022/02/19 18:06:44;;;;;;;;;;;5.00;99.90;;;;;;8404879;28;19939;-70
2022/02/19 18:10:46;;;;;;;;;;;4.90;99.90;;;;;;8406165;28;19973;-70
2022/02/19 18:14:48;;;;;;;;;;;4.80;99.90;;;;;;8406234;28;20320;-70
2022/02/19 18:18:49;;;;;;;;;;;4.70;99.90;;;;;;8412935;28;20327;-70
2022/02/19 18:22:51;;;;;;;;;;;4.70;99.90;;;;;;8390583;28;19928;-71
2022/02/19 18:26:53;;;;;;;;;;;4.70;99.90;;;;;;8412372;28;19928;-71
2022/02/19 18:30:55;;;;;;;;;;;4.60;99.90;;;;;;8397206;28;20257;-71
2022/02/19 18:34:57;;;;;;;;;;;4.60;99.90;;;;;;8408495;28;19931;-71
2022/02/19 18:38:59;;;;;;;;;;;4.60;99.90;;;;;;8383581;28;19970;-71
2022/02/19 18:43:00;;;;;;;;;;;4.60;99.90;;;;;;8394854;28;19932;-71
2022/02/19 18:47:22;;;;;;;;;;;4.60;99.90;;;;;;8409717;28;19930;-71
2022/02/19 18:51:24;;;;;;;;;;;4.60;99.90;;;;;;8410785;28;20299;-71
2022/02/19 18:55:25;;;;;;;;;;;4.60;99.90;;;;;;8407245;28;20279;-71
2022/02/19 18:59:38;;;;;;;;;;;4.50;99.90;;;;;;8402304;28;19928;-71
2022/02/19 19:03:39;;;;;;;;;;;4.40;99.90;;;;;;8379111;28;19925;-71
2022/02/19 19:07:41;;;;;;;;;;;4.40;99.90;;;;;;8408577;28;19963;-71
2022/02/19 19:11:43;;;;;;;;;;;4.40;99.90;;;;;;8387379;28;19924;-71
2022/02/19 19:15:44;;;;;;;;;;;4.50;99.90;;;;;;8408358;28;21444;-71
2022/02/19 19:19:46;;;;;;;;;;;4.50;99.90;;;;;;8408004;28;19939;-71
2022/02/19 19:23:48;;;;;;;;;;;4.50;99.90;;;;;;8409324;28;19931;-71
2022/02/19 19:27:49;;;;;;;;;;;4.50;99.90;;;;;;8405160;28;19923;-71
2022/02/19 19:31:51;;;;;;;;;;;4.60;99.90;;;;;;8409512;28;20386;-71
2022/02/19 19:35:54;;;;;;;;;;;4.60;99.90;;;;;;8407146;28;19935;-71
2022/02/19 19:39:56;;;;;;;;;;;4.70;99.90;;;;;;8408224;28;19933;-71
2022/02/19 19:44:00;;;;;;;;;;;4.70;99.90;;;;;;8409565;28;19929;-71
2022/02/19 19:48:02;;;;;;;;;;;4.80;99.90;;;;;;8398428;28;19970;-72
2022/02/19 19:52:05;;;;;;;;;;;4.80;99.90;;;;;;8393852;28;20351;-71
2022/02/19 19:56:07;;;;;;;;;;;4.80;99.90;;;;;;8400335;28;20001;-71
2022/02/19 20:00:09;;;;;;;;;;;4.90;99.90;;;;;;8402993;28;20025;-71
2022/02/19 20:04:11;;;;;;;;;;;5.00;99.90;;;;;;8401836;28;20375;-71
2022/02/19 20:08:12;;;;;;;;;;;5.00;99.90;;;;;;8415305;28;19932;-71
2022/02/19 20:12:14;;;;;;;;;;;5.10;99.90;;;;;;8410009;28;19924;-71
2022/02/19 20:16:16;;;;;;;;;;;5.20;99.90;;;;;;8415852;28;19931;-71
2022/02/19 20:20:18;;;;;;;;;;;5.20;99.90;;;;;;8397410;28;19932;-71
2022/02/19 20:24:19;;;;;;;;;;;5.30;99.90;;;;;;8414198;28;19928;-71
2022/02/19 20:28:23;;;;;;;;;;;5.30;99.90;;;;;;8418067;28;19924;-71
2022/02/19 20:32:24;;;;;;;;;;;5.30;99.90;;;;;;8396021;28;19932;-72
2022/02/19 20:36:26;;;;;;;;;;;5.30;99.90;;;;;;8419939;28;19924;-71
2022/02/19 20:40:28;;;;;;;;;;;5.30;99.90;;;;;;8414983;28;19931;-72
2022/02/19 20:44:30;;;;;;;;;;;5.30;99.90;;;;;;8396360;28;20336;-72
2022/02/19 20:48:32;;;;;;;;;;;5.30;99.90;;;;;;8413312;28;19967;-72
2022/02/19 20:52:33;;;;;;;;;;;5.40;99.90;;;;;;8414998;28;19924;-71
2022/02/19 20:56:35;;;;;;;;;;;5.50;99.90;;;;;;8418307;28;19931;-72
2022/02/19 21:00:37;;;;;;;;;;;5.60;99.90;;;;;;8396726;28;19925;-71
2022/02/19 21:04:38;;;;;;;;;;;5.70;99.90;;;;;;8412182;28;20275;-71
2022/02/19 21:08:40;;;;;;;;;;;5.70;99.90;;;;;;8415085;28;19932;-71
2022/02/19 21:12:42;;;;;;;;;;;5.70;99.90;;;;;;8408402;28;20372;-72
2022/02/19 21:16:44;;;;;;;;;;;5.80;99.90;;;;;;8392338;28;19950;-72
2022/02/19 21:20:45;;;;;;;;;;;5.90;99.90;;;;;;8389393;28;19931;-71
2022/02/19 21:24:47;;;;;;;;;;;6.00;99.90;;;;;;8389303;28;20292;-71
2022/02/19 21:28:52;;;;;;;;;;;6.10;99.90;;;;;;8405565;28;20667;-71
2022/02/19 21:32:54;;;;;;;;;;;6.20;99.90;;;;;;8350121;28;1748711;-71
2022/02/19 21:36:57;;;;;;;;;;;6.30;99.90;;;;;;8406441;28;19932;-71
2022/02/19 21:40:59;;;;;;;;;;;6.40;99.90;;;;;;8407231;28;19932;-71
2022/02/19 21:45:01;;;;;;;;;;;6.40;99.90;;;;;;8395418;28;19931;-71
2022/02/19 21:49:03;;;;;;;;;;;6.60;99.90;;;;;;8394665;28;20003;-71
2022/02/19 21:53:04;;;;;;;;;;;6.60;99.90;;;;;;8413447;28;19925;-71
2022/02/19 21:57:07;;;;;;;;;;;6.80;99.90;;;;;;8392722;28;19924;-71
2022/02/19 22:01:09;;;;;;;;;;;6.80;99.90;;;;;;8408058;28;20299;-72
2022/02/19 22:05:11;;;;;;;;;;;6.80;99.90;;;;;;8407720;28;19967;-71
2022/02/19 22:09:12;;;;;;;;;;;6.80;99.90;;;;;;8410127;28;19931;-71
2022/02/19 22:13:14;;;;;;;;;;;6.70;99.90;;;;;;8419511;28;19924;-71
2022/02/19 22:17:16;;;;;;;;;;;6.60;99.90;;;;;;8389570;28;19924;-71
2022/02/19 22:21:18;;;;;;;;;;;6.60;99.90;;;;;;8409527;28;19944;-71
2022/02/19 22:25:20;;;;;;;;;;;6.50;99.90;;;;;;8416839;28;19936;-71
2022/02/19 22:29:23;;;;;;;;;;;6.50;99.90;;;;;;8408989;28;19931;-71
2022/02/19 22:33:24;;;;;;;;;;;6.40;99.90;;;;;;8410689;28;20214;-71
2022/02/19 22:37:26;;;;;;;;;;;6.30;99.90;;;;;;8392234;28;20391;-71
2022/02/19 22:41:28;;;;;;;;;;;6.30;99.90;;;;;;8388540;28;19940;-71
2022/02/19 22:45:30;;;;;;;;;;;6.20;99.90;;;;;;8409029;28;19983;-71
2022/02/19 22:49:32;;;;;;;;;;;6.20;99.90;;;;;;8406408;28;20364;-71
2022/02/19 22:53:34;;;;;;;;;;;6.20;99.90;;;;;;8388665;28;19924;-71
2022/02/19 22:57:38;;;;;;;;;;;6.10;99.90;;;;;;8405155;28;19924;-71
2022/02/19 23:01:40;;;;;;;;;;;6.10;99.90;;;;;;8413159;28;19970;-71
2022/02/19 23:05:42;;;;;;;;;;;6.10;99.90;;;;;;8384856;28;19932;-71
2022/02/19 23:09:43;;;;;;;;;;;6.00;99.90;;;;;;8411120;28;20254;-71
2022/02/19 23:13:45;;;;;;;;;;;6.00;99.90;;;;;;8401414;28;20352;-71
2022/02/19 23:17:47;;;;;;;;;;;6.00;99.90;;;;;;8390805;28;19928;-71
2022/02/19 23:21:48;;;;;;;;;;;6.00;99.90;;;;;;8408588;28;19931;-71
2022/02/19 23:25:50;;;;;;;;;;;6.00;99.90;;;;;;8406684;28;20264;-71
2022/02/19 23:29:52;;;;;;;;;;;6.10;99.90;;;;;;8393858;28;20315;-71
2022/02/19 23:33:54;;;;;;;;;;;6.10;99.90;;;;;;8408855;28;20430;-71
2022/02/19 23:37:56;;;;;;;;;;;6.10;99.90;;;;;;8411296;28;19924;-71
2022/02/19 23:42:00;;;;;;;;;;;6.00;99.90;;;;;;8389153;28;20022;-71
2022/02/19 23:46:02;;;;;;;;;;;5.90;99.90;;;;;;8392423;28;19947;-71
2022/02/19 23:50:04;;;;;;;;;;;5.80;99.90;;;;;;8395883;28;19963;-71
2022/02/19 23:54:05;;;;;;;;;;;5.60;99.90;;;;;;8406692;28;19986;-71
2022/02/19 23:58:07;;;;;;;;;;;5.50;99.90;;;;;;8407474;28;19951;-71
